createdAt,value
2018-09-10T00:00:48.928Z,16.80
2018-09-10T00:04:52.293Z,16.70
2018-09-10T00:08:55.645Z,16.70
2018-09-10T00:12:58.984Z,16.60
2018-09-10T00:17:02.318Z,16.60
2018-09-10T00:21:05.635Z,16.60
2018-09-10T00:25:09.382Z,16.50
2018-09-10T00:29:12.712Z,16.50
2018-09-10T00:33:16.940Z,16.40
2018-09-10T00:37:20.274Z,16.40
2018-09-10T00:41:23.624Z,16.30
2018-09-10T00:45:26.959Z,16.30
2018-09-10T00:49:30.330Z,16.20
2018-09-10T00:53:33.668Z,16.20
2018-09-10T00:57:37.884Z,16.10
2018-09-10T01:01:41.216Z,16.10
2018-09-10T01:05:44.596Z,16.10
2018-09-10T01:09:47.950Z,16.10
2018-09-10T01:13:51.374Z,16.00
2018-09-10T01:17:54.717Z,16.00
2018-09-10T01:21:58.020Z,15.90
2018-09-10T01:26:02.518Z,15.90
2018-09-10T01:30:06.071Z,15.90
2018-09-10T01:34:14.868Z,15.80
2018-09-10T01:38:18.219Z,15.80
2018-09-10T01:42:23.903Z,15.90
2018-09-10T01:46:27.236Z,15.90
2018-09-10T01:50:30.583Z,15.90
2018-09-10T01:54:33.924Z,15.90
2018-09-10T01:58:37.272Z,15.90
2018-09-10T02:02:40.594Z,15.80
2018-09-10T02:06:43.933Z,15.80
2018-09-10T02:10:47.284Z,15.80
2018-09-10T02:14:50.615Z,15.80
2018-09-10T02:18:53.979Z,15.80
2018-09-10T02:22:57.351Z,15.90
2018-09-10T02:27:00.660Z,15.90
2018-09-10T02:31:04.583Z,15.90
2018-09-10T02:35:07.970Z,15.90
2018-09-10T02:39:11.328Z,15.90
2018-09-10T02:43:14.694Z,16.00
2018-09-10T02:47:18.010Z,16.00
2018-09-10T02:51:21.364Z,16.00
2018-09-10T02:55:24.714Z,16.00
2018-09-10T02:59:28.092Z,16.00
2018-09-10T03:03:31.440Z,16.00
2018-09-10T03:07:34.760Z,16.10
2018-09-10T03:11:38.182Z,16.10
2018-09-10T03:15:41.528Z,16.10
2018-09-10T03:19:44.926Z,16.10
2018-09-10T03:23:48.287Z,16.20
2018-09-10T03:27:51.611Z,16.20
2018-09-10T03:31:54.957Z,16.30
2018-09-10T03:35:58.336Z,16.30
2018-09-10T03:40:01.673Z,16.30
2018-09-10T03:44:05.009Z,16.40
2018-09-10T03:48:08.952Z,16.40
2018-09-10T03:52:12.364Z,16.50
2018-09-10T03:56:15.808Z,16.50
2018-09-10T04:00:19.144Z,16.50
2018-09-10T04:04:22.543Z,16.60
2018-09-10T04:08:25.887Z,16.60
2018-09-10T04:12:29.253Z,16.60
2018-09-10T04:16:32.622Z,16.70
2018-09-10T04:20:35.972Z,16.70
2018-09-10T04:24:39.330Z,16.70
2018-09-10T04:28:42.694Z,16.80
2018-09-10T04:32:46.062Z,16.80
2018-09-10T04:36:49.427Z,16.80
2018-09-10T04:40:52.815Z,16.90
2018-09-10T04:44:56.843Z,16.90
2018-09-10T04:49:02.136Z,16.90
2018-09-10T04:53:05.526Z,16.90
2018-09-10T04:57:08.864Z,16.90
2018-09-10T05:01:12.378Z,16.90
2018-09-10T05:05:15.752Z,16.90
2018-09-10T05:09:19.156Z,16.90
2018-09-10T05:13:22.512Z,16.90
2018-09-10T05:17:25.849Z,16.90
2018-09-10T05:21:29.274Z,16.90
2018-09-10T05:25:32.805Z,16.90
2018-09-10T05:29:36.204Z,16.90
2018-09-10T05:33:39.627Z,16.90
2018-09-10T05:37:43.020Z,16.90
2018-09-10T05:41:46.531Z,17.00
2018-09-10T05:45:50.810Z,17.00
2018-09-10T05:49:54.336Z,17.00
2018-09-10T05:53:57.748Z,17.00
2018-09-10T05:58:01.113Z,17.00
2018-09-10T06:02:04.509Z,17.10
2018-09-10T06:06:07.966Z,17.10
2018-09-10T06:10:11.375Z,17.20
2018-09-10T06:14:14.811Z,17.20
2018-09-10T06:18:18.225Z,17.30
2018-09-10T06:22:22.097Z,17.30
2018-09-10T06:26:25.521Z,17.40
2018-09-10T06:30:28.873Z,17.50
2018-09-10T06:34:32.257Z,17.50
2018-09-10T06:38:35.661Z,17.60
2018-09-10T06:42:39.032Z,17.70
2018-09-10T06:46:42.393Z,17.70
2018-09-10T06:50:45.759Z,17.80
2018-09-10T06:54:49.124Z,17.90
2018-09-10T06:58:52.469Z,17.90
2018-09-10T07:02:55.809Z,18.00
2018-09-10T07:06:59.452Z,18.00
2018-09-10T07:11:02.913Z,18.00
2018-09-10T07:15:06.339Z,18.10
2018-09-10T07:19:09.929Z,18.20
2018-09-10T07:23:13.216Z,18.30
2018-09-10T07:27:16.584Z,18.40
2018-09-10T07:31:20.115Z,18.50
2018-09-10T07:35:23.541Z,18.50
2018-09-10T07:39:26.885Z,18.60
2018-09-10T07:43:30.320Z,18.70
2018-09-10T07:47:33.680Z,18.70
2018-09-10T07:51:37.010Z,18.80
2018-09-10T07:55:40.369Z,18.90
2018-09-10T07:59:43.824Z,19.00
2018-09-10T08:03:47.246Z,19.10
2018-09-10T08:07:50.607Z,19.20
2018-09-10T08:11:54.027Z,19.30
2018-09-10T08:15:57.408Z,19.40
2018-09-10T08:20:00.816Z,19.60
2018-09-10T08:24:04.305Z,19.70
2018-09-10T08:28:07.560Z,19.90
2018-09-10T08:32:10.955Z,20.10
2018-09-10T08:36:14.296Z,20.30
2018-09-10T08:40:17.639Z,20.50
2018-09-10T08:44:20.975Z,20.60
2018-09-10T08:48:24.431Z,20.70
2018-09-10T08:52:27.652Z,20.80
2018-09-10T08:56:30.992Z,20.80
2018-09-10T09:00:34.528Z,20.90
2018-09-10T09:04:37.832Z,20.90
2018-09-10T09:08:41.199Z,21.00
2018-09-10T09:12:44.546Z,21.00
2018-09-10T09:16:47.912Z,21.10
2018-09-10T09:20:51.253Z,21.20
2018-09-10T09:24:54.596Z,21.30
2018-09-10T09:28:57.932Z,21.40
2018-09-10T09:33:01.269Z,21.40
2018-09-10T09:37:09.904Z,21.40
2018-09-10T09:41:18.570Z,21.40
2018-09-10T09:45:27.243Z,21.40
2018-09-10T09:49:30.566Z,21.50
2018-09-10T09:53:34.451Z,21.60
2018-09-10T09:57:37.769Z,21.60
2018-09-10T10:01:47.655Z,21.80
2018-09-10T10:05:51.199Z,21.90
2018-09-10T10:09:54.548Z,22.00
2018-09-10T10:13:57.855Z,22.10
2018-09-10T10:18:01.190Z,22.10
2018-09-10T10:22:04.544Z,22.30
2018-09-10T10:26:07.891Z,22.50
2018-09-10T10:30:11.253Z,22.80
2018-09-10T10:34:14.604Z,22.90
2018-09-10T10:38:17.928Z,23.10
2018-09-10T10:42:21.278Z,23.10
2018-09-10T10:46:24.592Z,23.10
2018-09-10T10:50:27.940Z,23.20
2018-09-10T10:54:31.252Z,23.20
2018-09-10T10:58:34.578Z,23.20
2018-09-10T11:02:37.978Z,23.20
2018-09-10T11:06:41.371Z,23.20
2018-09-10T11:10:44.757Z,23.20
2018-09-10T11:14:48.084Z,23.20
2018-09-10T11:18:51.448Z,23.20
2018-09-10T11:22:54.786Z,23.30
2018-09-10T11:26:58.124Z,23.40
2018-09-10T11:31:01.468Z,23.40
2018-09-10T11:35:04.811Z,23.50
2018-09-10T11:39:08.197Z,23.60
2018-09-10T11:43:11.538Z,23.70
2018-09-10T11:47:14.873Z,23.80
2018-09-10T11:51:18.227Z,23.90
2018-09-10T11:55:21.592Z,24.00
2018-09-10T11:59:24.909Z,24.10
2018-09-10T12:03:28.279Z,24.20
2018-09-10T12:07:31.620Z,24.20
2018-09-10T12:11:35.020Z,24.20
2018-09-10T12:15:38.318Z,24.30
2018-09-10T12:19:41.779Z,24.40
2018-09-10T12:23:45.114Z,24.40
2018-09-10T12:27:48.437Z,24.30
2018-09-10T12:31:51.873Z,24.20
2018-09-10T12:35:55.227Z,24.10
2018-09-10T12:39:58.551Z,24.10
2018-09-10T12:44:02.567Z,24.10
2018-09-10T12:48:07.271Z,24.10
2018-09-10T12:52:10.631Z,24.10
2018-09-10T12:56:13.944Z,24.00
2018-09-10T13:00:17.360Z,23.90
2018-09-10T13:04:20.760Z,23.80
2018-09-10T13:08:24.064Z,23.80
2018-09-10T13:12:27.391Z,23.80
2018-09-10T13:16:30.751Z,23.70
2018-09-10T13:20:34.071Z,23.60
2018-09-10T13:24:37.409Z,23.50
2018-09-10T13:28:40.734Z,23.50
2018-09-10T13:32:44.146Z,23.60
2018-09-10T13:36:47.525Z,23.60
2018-09-10T13:40:50.799Z,23.60
2018-09-10T13:44:54.435Z,23.60
2018-09-10T13:48:58.014Z,23.60
2018-09-10T13:53:01.599Z,23.70
2018-09-10T13:57:05.856Z,23.70
2018-09-10T14:01:09.769Z,23.60
2018-09-10T14:05:13.309Z,23.60
2018-09-10T14:09:16.832Z,23.60
2018-09-10T14:13:20.430Z,23.60
2018-09-10T14:17:23.997Z,23.60
2018-09-10T14:21:28.221Z,23.50
2018-09-10T14:25:33.022Z,23.40
2018-09-10T14:29:36.585Z,23.40
2018-09-10T14:33:40.166Z,23.30
2018-09-10T14:37:43.816Z,23.20
2018-09-10T14:41:47.401Z,23.20
2018-09-10T14:45:50.951Z,23.20
2018-09-10T14:49:54.507Z,23.20
2018-09-10T14:53:58.124Z,23.10
2018-09-10T14:58:01.606Z,23.10
2018-09-10T15:02:05.248Z,23.10
2018-09-10T15:06:08.890Z,23.10
2018-09-10T15:10:13.323Z,23.10
2018-09-10T15:14:16.873Z,23.00
2018-09-10T15:18:20.638Z,23.00
2018-09-10T15:22:25.210Z,23.00
2018-09-10T15:26:28.765Z,23.00
2018-09-10T15:30:32.513Z,23.00
2018-09-10T15:34:36.169Z,23.00
2018-09-10T15:38:39.714Z,22.90
2018-09-10T15:42:44.179Z,23.00
2018-09-10T15:46:47.887Z,22.90
2018-09-10T15:50:52.028Z,22.80
2018-09-10T15:54:59.561Z,22.80
2018-09-10T15:59:03.228Z,22.70
2018-09-10T16:03:06.821Z,22.70
2018-09-10T16:07:10.451Z,22.60
2018-09-10T16:11:14.055Z,22.50
2018-09-10T16:15:18.499Z,22.50
2018-09-10T16:19:22.007Z,22.50
2018-09-10T16:23:26.473Z,22.50
2018-09-10T16:27:30.281Z,22.40
2018-09-10T16:31:33.773Z,22.40
2018-09-10T16:35:37.094Z,22.30
2018-09-10T16:39:40.451Z,22.30
2018-09-10T16:43:43.871Z,22.20
2018-09-10T16:47:47.213Z,22.20
2018-09-10T16:51:50.555Z,22.10
2018-09-10T16:55:53.882Z,22.10
2018-09-10T16:59:57.205Z,22.10
2018-09-10T17:04:00.522Z,22.00
2018-09-10T17:08:03.837Z,22.00
2018-09-10T17:12:07.199Z,21.90
2018-09-10T17:16:10.561Z,21.90
2018-09-10T17:20:13.868Z,21.80
2018-09-10T17:24:17.218Z,21.70
2018-09-10T17:28:21.114Z,21.70
2018-09-10T17:32:24.436Z,21.60
2018-09-10T17:36:27.764Z,21.60
2018-09-10T17:40:31.089Z,21.50
2018-09-10T17:44:34.407Z,21.50
2018-09-10T17:48:37.715Z,21.40
2018-09-10T17:52:41.047Z,21.40
2018-09-10T17:56:44.407Z,21.30
2018-09-10T18:00:48.213Z,21.30
2018-09-10T18:04:51.552Z,21.20
2018-09-10T18:08:54.902Z,21.10
2018-09-10T18:12:58.215Z,21.10
2018-09-10T18:17:01.537Z,21.00
2018-09-10T18:21:05.024Z,21.00
2018-09-10T18:25:08.347Z,20.90
2018-09-10T18:29:11.670Z,20.90
2018-09-10T18:33:15.000Z,20.80
2018-09-10T18:37:18.315Z,20.70
2018-09-10T18:41:21.646Z,20.70
2018-09-10T18:45:24.974Z,20.60
2018-09-10T18:49:28.271Z,20.60
2018-09-10T18:53:31.588Z,20.60
2018-09-10T18:57:34.915Z,20.50
2018-09-10T19:01:38.280Z,20.50
2018-09-10T19:05:41.649Z,20.40
2018-09-10T19:09:44.967Z,20.30
2018-09-10T19:13:48.291Z,20.30
2018-09-10T19:17:51.655Z,20.20
2018-09-10T19:21:54.995Z,20.20
2018-09-10T19:25:58.346Z,20.10
2018-09-10T19:30:01.658Z,20.10
2018-09-10T19:34:05.215Z,20.00
2018-09-10T19:38:08.596Z,19.90
2018-09-10T19:42:11.925Z,19.90
2018-09-10T19:46:15.285Z,19.80
2018-09-10T19:50:18.614Z,19.80
2018-09-10T19:54:22.162Z,19.70
2018-09-10T19:58:25.502Z,19.70
2018-09-10T20:02:28.860Z,19.60
2018-09-10T20:06:32.311Z,19.60
2018-09-10T20:10:35.667Z,19.60
2018-09-10T20:14:39.048Z,19.60
2018-09-10T20:18:42.404Z,19.50
2018-09-10T20:22:45.781Z,19.50
2018-09-10T20:26:49.199Z,19.50
2018-09-10T20:30:52.610Z,19.50
2018-09-10T20:34:56.039Z,19.50
2018-09-10T20:38:59.396Z,19.40
2018-09-10T20:43:02.855Z,19.40
2018-09-10T20:47:06.924Z,19.30
2018-09-10T20:51:10.243Z,19.30
2018-09-10T20:55:13.626Z,19.30
2018-09-10T20:59:16.968Z,19.30
2018-09-10T21:03:20.291Z,19.20
2018-09-10T21:07:23.756Z,19.20
2018-09-10T21:11:27.150Z,19.10
2018-09-10T21:15:30.458Z,19.10
2018-09-10T21:19:33.924Z,19.00
2018-09-10T21:23:37.462Z,19.00
2018-09-10T21:27:41.200Z,19.00
2018-09-10T21:31:44.748Z,18.90
2018-09-10T21:35:48.317Z,18.90
2018-09-10T21:39:52.218Z,18.90
2018-09-10T21:43:55.899Z,18.80
2018-09-10T21:47:59.447Z,18.80
2018-09-10T21:52:03.103Z,18.80
2018-09-10T21:56:07.578Z,18.80
2018-09-10T22:00:11.205Z,18.80
2018-09-10T22:04:17.923Z,18.80
2018-09-10T22:08:28.083Z,18.80
2018-09-10T22:12:31.448Z,18.70
2018-09-10T22:16:34.748Z,18.70
2018-09-10T22:20:38.101Z,18.70
2018-09-10T22:24:41.490Z,18.70
2018-09-10T22:28:44.782Z,18.70
2018-09-10T22:32:48.098Z,18.70
2018-09-10T22:36:51.471Z,18.70
2018-09-10T22:40:54.931Z,18.70
2018-09-10T22:44:58.252Z,18.70
2018-09-10T22:49:01.627Z,18.70
2018-09-10T22:53:05.032Z,18.70
2018-09-10T22:57:08.350Z,18.70
2018-09-10T23:01:11.687Z,18.70
2018-09-10T23:05:15.007Z,18.70
2018-09-10T23:09:18.360Z,18.70
2018-09-10T23:13:21.688Z,18.60
2018-09-10T23:17:25.002Z,18.70
2018-09-10T23:21:28.341Z,18.60
2018-09-10T23:25:31.674Z,18.60
2018-09-10T23:29:35.000Z,18.60
2018-09-10T23:33:38.329Z,18.60
2018-09-10T23:37:41.647Z,18.60
2018-09-10T23:41:45.021Z,18.60
2018-09-10T23:45:48.338Z,18.60
2018-09-10T23:49:51.688Z,18.50
2018-09-10T23:53:55.036Z,18.50
2018-09-10T23:57:58.370Z,18.50
